Time;durP1;ratioP1;P1;durP2;ratioP2;P2;SDS_P1;SDS_P2;PMS_P1;PMS_P2;Temp;Humidity;BMP_temperature;BMP_pressure;BME280_temperature;BME280_humidity;BME280_pressure;Samples;Min_cycle;Max_cycle;Signal;HPM_P1;HPM_P2
2022/06/26 00:02:24;;;;;;;;;4.50;1.75;;;;;-149.35;100.00;64108.03;5010113;28;45763;-55
2022/06/26 00:04:50;;;;;;;;;1.75;1.25;;;;;-149.35;100.00;64108.03;5010053;28;45783;-51
2022/06/26 00:07:16;;;;;;;;;1.50;1.50;;;;;-149.35;100.00;64108.03;5010028;28;45810;-52
2022/06/26 00:09:42;;;;;;;;;2.25;2.25;;;;;-149.35;100.00;64108.03;5011640;28;45835;-46
2022/06/26 00:12:08;;;;;;;;;1.00;1.00;;;;;-149.35;100.00;64108.03;4999892;28;46834;-52
2022/06/26 00:14:34;;;;;;;;;4.00;4.00;;;;;-149.35;100.00;64108.03;5010046;28;45770;-49
2022/06/26 00:16:59;;;;;;;;;3.00;2.00;;;;;-149.35;100.00;64108.03;5011252;28;45444;-50
2022/06/26 00:19:25;;;;;;;;;2.00;2.00;;;;;-149.35;100.00;64108.03;5011333;28;45525;-53
2022/06/26 00:21:50;;;;;;;;;2.50;2.50;;;;;-149.35;100.00;64108.03;5010996;28;45864;-52
2022/06/26 00:24:16;;;;;;;;;5.00;3.25;;;;;-149.35;100.00;64108.03;5010504;28;45916;-53
2022/06/26 00:26:42;;;;;;;;;3.25;2.75;;;;;-149.35;100.00;64108.03;5010117;28;45526;-49
2022/06/26 00:29:07;;;;;;;;;1.75;1.75;;;;;-149.35;100.00;64108.03;5012012;28;45452;-47
2022/06/26 00:31:33;;;;;;;;;2.50;2.00;;;;;-149.35;100.00;64108.03;5014605;28;46212;-50
2022/06/26 00:33:58;;;;;;;;;4.25;3.00;;;;;-149.35;100.00;64108.03;5037054;28;45371;-52
2022/06/26 00:36:24;;;;;;;;;2.00;2.00;;;;;-149.35;100.00;64108.03;4987392;28;46039;-53
2022/06/26 00:38:49;;;;;;;;;4.50;3.00;;;;;-149.35;100.00;64108.03;5017664;28;45707;-52
2022/06/26 00:41:15;;;;;;;;;4.00;2.75;;;;;-149.35;100.00;64108.03;5018284;28;45921;-50
2022/06/26 00:43:40;;;;;;;;;3.50;3.50;;;;;-149.35;100.00;64108.03;5018454;28;45385;-47
2022/06/26 00:46:06;;;;;;;;;2.50;2.50;;;;;-149.35;100.00;64108.03;5018969;28;45247;-44
2022/06/26 00:48:31;;;;;;;;;2.00;2.00;;;;;-149.35;100.00;64108.03;5018740;28;45464;-46
2022/06/26 00:50:57;;;;;;;;;2.75;1.50;;;;;-149.35;100.00;64108.03;5018476;28;46789;-51
2022/06/26 00:53:22;;;;;;;;;3.00;3.00;;;;;-149.35;100.00;64108.03;5000331;28;45378;-51
2022/06/26 00:55:48;;;;;;;;;6.00;6.00;;;;;-149.35;100.00;64108.03;5018529;28;45309;-52
2022/06/26 00:58:13;;;;;;;;;3.00;2.00;;;;;-149.35;100.00;64108.03;5017235;28;45514;-51
2022/06/26 01:00:39;;;;;;;;;2.00;2.00;;;;;-149.35;100.00;64108.03;5017042;28;46728;-50
2022/06/26 01:03:04;;;;;;;;;4.25;4.25;;;;;-149.35;100.00;64108.03;5018480;28;45426;-52
2022/06/26 01:05:30;;;;;;;;;5.75;3.00;;;;;-149.35;100.00;64108.03;5018629;28;45358;-46
2022/06/26 01:07:55;;;;;;;;;3.25;3.25;;;;;-149.35;100.00;64108.03;5018747;28;45415;-49
2022/06/26 01:10:21;;;;;;;;;2.50;1.75;;;;;-149.35;100.00;64108.03;5018262;28;45675;-48
2022/06/26 01:12:46;;;;;;;;;2.25;2.25;;;;;-149.35;100.00;64108.03;5017935;28;45429;-51
2022/06/26 01:15:12;;;;;;;;;2.00;2.00;;;;;-149.35;100.00;64108.03;5018339;28;45361;-51
2022/06/26 01:17:38;;;;;;;;;1.00;1.00;;;;;-149.35;100.00;64108.03;5017314;28;45611;-49
2022/06/26 01:20:05;;;;;;;;;2.00;2.00;;;;;-149.35;100.00;64108.03;5016670;28;46564;-48
2022/06/26 01:22:31;;;;;;;;;2.40;2.40;;;;;-149.35;100.00;64108.03;5017863;28;45268;-46
2022/06/26 01:24:56;;;;;;;;;4.25;3.25;;;;;-149.35;100.00;64108.03;5017336;28;45225;-48
2022/06/26 01:27:22;;;;;;;;;3.50;1.00;;;;;-149.35;100.00;64108.03;5017869;28;45651;-51
2022/06/26 01:29:47;;;;;;;;;1.50;1.50;;;;;-149.35;100.00;64108.03;5015726;28;45847;-49
2022/06/26 01:32:13;;;;;;;;;3.00;1.75;;;;;-149.35;100.00;64108.03;5017107;28;45302;-49
2022/06/26 01:34:39;;;;;;;;;2.50;2.00;;;;;-149.35;100.00;64108.03;5016027;28;45383;-51
2022/06/26 01:37:04;;;;;;;;;2.00;2.00;;;;;-149.35;100.00;64108.03;5006322;28;45491;-49
2022/06/26 01:39:30;;;;;;;;;2.25;2.25;;;;;-149.35;100.00;64108.03;4997389;28;46597;-45
2022/06/26 01:41:55;;;;;;;;;2.00;2.00;;;;;-149.35;100.00;64108.03;5016706;28;45546;-45
2022/06/26 01:44:21;;;;;;;;;2.00;2.00;;;;;-149.35;100.00;64108.03;5017053;28;45377;-47
2022/06/26 01:46:47;;;;;;;;;4.75;4.00;;;;;-149.35;100.00;64108.03;5017012;28;45357;-48
2022/06/26 01:49:12;;;;;;;;;2.50;2.25;;;;;-149.35;100.00;64108.03;5016594;28;46712;-49
2022/06/26 01:51:38;;;;;;;;;6.00;4.00;;;;;-149.35;100.00;64108.03;5016609;28;45563;-48
2022/06/26 01:54:03;;;;;;;;;3.00;3.00;;;;;-149.35;100.00;64108.03;5016504;28;45386;-50
2022/06/26 01:56:29;;;;;;;;;2.00;2.00;;;;;-149.35;100.00;64108.03;5015647;28;45527;-50
2022/06/26 01:58:54;;;;;;;;;2.50;2.50;;;;;-149.35;100.00;64108.03;4998862;28;45489;-45
2022/06/26 02:01:20;;;;;;;;;2.25;2.00;;;;;-149.35;100.00;64108.03;5016367;28;45421;-47
2022/06/26 02:03:45;;;;;;;;;2.25;1.75;;;;;-149.35;100.00;64108.03;5016924;28;45428;-49
2022/06/26 02:06:11;;;;;;;;;3.00;2.50;;;;;-149.35;100.00;64108.03;5016532;28;45351;-51
2022/06/26 02:08:37;;;;;;;;;3.00;3.00;;;;;-149.35;100.00;64108.03;5015745;28;45872;-51
2022/06/26 02:13:47;;;;;;;;;2.80;2.80;;;;;-149.35;100.00;64108.03;5016639;28;45310;-49
2022/06/26 02:16:16;;;;;;;;;2.20;2.20;;;;;-149.35;100.00;64108.03;5016404;28;45405;-51
2022/06/26 02:18:44;;;;;;;;;2.00;2.00;;;;;-149.35;100.00;64108.03;5016175;28;45717;-50
2022/06/26 02:21:11;;;;;;;;;3.60;3.60;;;;;-149.35;100.00;64108.03;5014988;28;45306;-51
2022/06/26 02:25:08;;;;;;;;;2.80;2.60;;;;;;;;5134077;27;45454;-46
2022/06/26 02:27:34;;;;;;;;;8.40;4.80;;;;;;;;5133995;27;45342;-51
2022/06/26 02:29:59;;;;;;;;;5.00;5.00;;;;;;;;5134470;27;45409;-50
2022/06/26 02:32:24;;;;;;;;;4.00;4.00;;;;;;;;5134336;27;45248;-49
2022/06/26 02:34:49;;;;;;;;;3.00;3.00;;;;;;;;5134050;27;46701;-49
2022/06/26 02:37:15;;;;;;;;;1.25;1.00;;;;;;;;5133876;27;45369;-51
2022/06/26 02:39:40;;;;;;;;;3.00;3.00;;;;;;;;5134237;27;45401;-54
2022/06/26 02:42:05;;;;;;;;;2.00;2.00;;;;;;;;5134330;27;45647;-50
2022/06/26 02:44:30;;;;;;;;;3.50;2.50;;;;;;;;5133802;27;46303;-48
2022/06/26 02:46:56;;;;;;;;;2.50;2.50;;;;;;;;5134235;27;45282;-45
2022/06/26 02:49:21;;;;;;;;;4.25;3.00;;;;;;;;5133839;27;45337;-48
2022/06/26 02:51:46;;;;;;;;;4.25;4.00;;;;;;;;5134206;27;45280;-49
2022/06/26 02:54:13;;;;;;;;;2.00;2.00;;;;;;;;5133852;27;46751;-49
2022/06/26 02:56:38;;;;;;;;;2.00;2.00;;;;;;;;5133602;27;45429;-47
2022/06/26 02:59:03;;;;;;;;;5.00;3.50;;;;;;;;5134059;27;45333;-47
2022/06/26 03:01:29;;;;;;;;;3.50;2.50;;;;;;;;5133812;27;45655;-48
2022/06/26 03:03:54;;;;;;;;;5.00;4.00;;;;;;;;5133850;27;46961;-47
2022/06/26 03:06:19;;;;;;;;;3.75;3.00;;;;;;;;5133873;27;45742;-48
2022/06/26 03:08:44;;;;;;;;;3.00;3.00;;;;;;;;5133461;27;45466;-48
2022/06/26 03:11:10;;;;;;;;;2.25;2.25;;;;;;;;5133987;27;45420;-46
2022/06/26 03:13:35;;;;;;;;;4.50;3.00;;;;;;;;5133427;27;46719;-46
2022/06/26 03:16:00;;;;;;;;;2.00;2.00;;;;;;;;5133838;27;45414;-46
2022/06/26 03:18:25;;;;;;;;;9.50;7.00;;;;;;;;5133497;27;45377;-49
2022/06/26 03:20:51;;;;;;;;;5.00;5.00;;;;;;;;5133537;27;45370;-54
2022/06/26 03:23:16;;;;;;;;;4.00;3.00;;;;;;;;5097412;27;45818;-49
2022/06/26 03:25:41;;;;;;;;;4.50;4.50;;;;;;;;5133407;27;45493;-49
2022/06/26 03:28:07;;;;;;;;;6.25;5.00;;;;;;;;5134103;27;45309;-51
2022/06/26 03:30:32;;;;;;;;;4.00;2.00;;;;;;;;5133748;27;45371;-49
2022/06/26 03:32:57;;;;;;;;;3.00;3.00;;;;;;;;5133570;27;46692;-49
2022/06/26 03:35:22;;;;;;;;;4.00;4.00;;;;;;;;5126075;27;45426;-44
2022/06/26 03:37:48;;;;;;;;;13.25;12.25;;;;;;;;5119429;27;45423;-44
2022/06/26 03:40:13;;;;;;;;;4.50;4.25;;;;;;;;5120192;27;45343;-48
2022/06/26 03:42:39;;;;;;;;;3.50;2.75;;;;;;;;5119538;27;46131;-48
2022/06/26 03:45:04;;;;;;;;;2.00;2.00;;;;;;;;5119600;27;45197;-52
2022/06/26 03:47:29;;;;;;;;;2.75;1.75;;;;;;;;5119547;27;45393;-51
2022/06/26 03:49:55;;;;;;;;;4.00;3.00;;;;;;;;5119754;27;45329;-50
2022/06/26 03:52:21;;;;;;;;;3.25;2.50;;;;;;;;5119420;27;45849;-50
2022/06/26 03:54:46;;;;;;;;;2.00;2.00;;;;;;;;5119417;27;45220;-51
2022/06/26 03:57:11;;;;;;;;;4.50;3.00;;;;;;;;5119448;27;45270;-48
2022/06/26 03:59:37;;;;;;;;;3.25;2.75;;;;;;;;5120094;27;45220;-46
2022/06/26 04:02:02;;;;;;;;;2.25;2.00;;;;;;;;5118936;27;45411;-50
2022/06/26 04:04:28;;;;;;;;;2.50;2.00;;;;;;;;5119472;27;45208;-50
2022/06/26 04:06:53;;;;;;;;;3.25;3.25;;;;;;;;5119264;27;45247;-51
2022/06/26 04:09:19;;;;;;;;;2.00;2.00;;;;;;;;5119956;27;45362;-51
2022/06/26 04:11:44;;;;;;;;;3.60;3.60;;;;;;;;5119224;27;45524;-54
2022/06/26 04:14:09;;;;;;;;;3.00;2.50;;;;;;;;5118854;27;45353;-53
2022/06/26 04:16:35;;;;;;;;;2.25;2.25;;;;;;;;5119618;27;45323;-49
2022/06/26 04:19:00;;;;;;;;;2.00;2.00;;;;;;;;5089205;27;45971;-46
2022/06/26 04:21:25;;;;;;;;;4.25;3.75;;;;;;;;5118954;27;45746;-44
2022/06/26 04:23:51;;;;;;;;;4.00;2.25;;;;;;;;5118690;27;45462;-47
2022/06/26 04:26:16;;;;;;;;;2.00;2.00;;;;;;;;5118969;27;45425;-51
2022/06/26 04:28:41;;;;;;;;;0.75;0.75;;;;;;;;5119520;27;45521;-53
2022/06/26 04:31:06;;;;;;;;;3.50;2.50;;;;;;;;5118578;27;45462;-52
2022/06/26 04:33:32;;;;;;;;;2.00;2.00;;;;;;;;5118899;27;45388;-51
2022/06/26 04:35:57;;;;;;;;;3.00;3.00;;;;;;;;5119180;27;45334;-49
2022/06/26 04:38:22;;;;;;;;;3.50;3.00;;;;;;;;5118828;27;45436;-54
2022/06/26 04:40:47;;;;;;;;;3.00;2.25;;;;;;;;5119077;27;46466;-48
2022/06/26 04:43:13;;;;;;;;;2.00;1.00;;;;;;;;5118290;27;45334;-46
2022/06/26 04:45:38;;;;;;;;;3.00;3.00;;;;;;;;5100730;27;45399;-44
2022/06/26 04:48:04;;;;;;;;;2.00;2.00;;;;;;;;5117763;27;45364;-52
2022/06/26 04:50:29;;;;;;;;;3.00;3.00;;;;;;;;5118097;27;45568;-49
2022/06/26 04:52:54;;;;;;;;;5.50;3.75;;;;;;;;5118623;27;45392;-51
2022/06/26 04:55:19;;;;;;;;;3.75;2.00;;;;;;;;5118295;27;45458;-48
2022/06/26 04:57:45;;;;;;;;;2.75;2.25;;;;;;;;5119027;27;45272;-51
2022/06/26 05:00:11;;;;;;;;;3.50;3.00;;;;;;;;5118304;27;46166;-53
2022/06/26 05:02:36;;;;;;;;;2.80;2.80;;;;;;;;5118292;27;45326;-47
2022/06/26 05:05:02;;;;;;;;;3.00;2.50;;;;;;;;5118533;27;45380;-46
2022/06/26 05:07:27;;;;;;;;;5.25;2.25;;;;;;;;5118428;27;45557;-46
2022/06/26 05:09:52;;;;;;;;;3.75;2.50;;;;;;;;5118395;27;45855;-49
2022/06/26 05:12:18;;;;;;;;;1.25;1.25;;;;;;;;5118460;27;45794;-49
2022/06/26 05:14:43;;;;;;;;;3.00;3.00;;;;;;;;5099585;27;45393;-49
2022/06/26 05:17:09;;;;;;;;;2.50;2.50;;;;;;;;5118549;27;45668;-49
2022/06/26 05:19:35;;;;;;;;;2.80;2.00;;;;;;;;5117702;27;46195;-50
2022/06/26 05:22:02;;;;;;;;;3.50;3.00;;;;;;;;5118069;27;45394;-50
2022/06/26 05:24:27;;;;;;;;;3.60;3.00;;;;;;;;5099011;27;45429;-47
2022/06/26 05:26:52;;;;;;;;;4.50;2.75;;;;;;;;5117906;27;45671;-45
2022/06/26 05:29:18;;;;;;;;;2.00;2.00;;;;;;;;5117692;27;45516;-48
2022/06/26 05:31:43;;;;;;;;;3.00;3.00;;;;;;;;5117366;27;45421;-48
2022/06/26 05:34:08;;;;;;;;;4.00;4.00;;;;;;;;5099398;27;45456;-50
2022/06/26 05:36:33;;;;;;;;;2.25;2.25;;;;;;;;5117984;27;45233;-53
2022/06/26 05:38:59;;;;;;;;;3.50;1.00;;;;;;;;5117536;27;46617;-48
2022/06/26 05:41:24;;;;;;;;;4.25;4.00;;;;;;;;5117469;27;45374;-48
2022/06/26 05:43:49;;;;;;;;;5.00;4.00;;;;;;;;5117311;27;45216;-49
2022/06/26 05:46:15;;;;;;;;;3.00;2.00;;;;;;;;5117865;27;45333;-47
2022/06/26 05:48:40;;;;;;;;;3.25;3.25;;;;;;;;5116899;27;45713;-49
2022/06/26 05:51:05;;;;;;;;;3.00;2.00;;;;;;;;5117322;27;45334;-49
2022/06/26 05:53:30;;;;;;;;;4.50;4.00;;;;;;;;5117308;27;45225;-47
2022/06/26 05:55:56;;;;;;;;;2.50;2.50;;;;;;;;5117458;27;45201;-48
2022/06/26 05:58:21;;;;;;;;;2.25;2.25;;;;;;;;5116736;27;46895;-50
2022/06/26 06:00:46;;;;;;;;;2.25;2.25;;;;;;;;5117225;27;45216;-51
2022/06/26 06:03:11;;;;;;;;;3.00;3.00;;;;;;;;5117137;27;45417;-52
2022/06/26 06:05:37;;;;;;;;;4.00;2.25;;;;;;;;5117741;27;45253;-55
2022/06/26 06:08:02;;;;;;;;;3.75;2.50;;;;;;;;5116902;27;46486;-50
2022/06/26 06:10:27;;;;;;;;;2.25;2.00;;;;;;;;5098901;27;45413;-48
2022/06/26 06:12:53;;;;;;;;;4.75;3.00;;;;;;;;5098605;27;45351;-49
2022/06/26 06:15:19;;;;;;;;;4.50;3.50;;;;;;;;5117353;27;45269;-47
2022/06/26 06:17:44;;;;;;;;;2.00;2.00;;;;;;;;5116792;27;47198;-47
2022/06/26 06:20:11;;;;;;;;;3.00;1.00;;;;;;;;5116811;27;45426;-49
2022/06/26 06:22:37;;;;;;;;;3.40;2.40;;;;;;;;5117262;27;45323;-49
2022/06/26 06:25:02;;;;;;;;;2.00;2.00;;;;;;;;5117411;27;45366;-51
2022/06/26 06:27:27;;;;;;;;;2.00;2.00;;;;;;;;5117190;27;46510;-48
2022/06/26 06:29:53;;;;;;;;;4.25;3.00;;;;;;;;5101655;27;45848;-47
2022/06/26 06:32:18;;;;;;;;;7.50;3.00;;;;;;;;5096508;27;45791;-47
2022/06/26 06:34:43;;;;;;;;;1.75;1.75;;;;;;;;5096705;27;45348;-48
2022/06/26 06:37:09;;;;;;;;;3.00;2.00;;;;;;;;5096418;27;46723;-44
2022/06/26 06:39:34;;;;;;;;;5.00;2.00;;;;;;;;5096369;27;45361;-47
2022/06/26 06:41:59;;;;;;;;;1.50;1.50;;;;;;;;5096223;27;45314;-49
2022/06/26 06:44:24;;;;;;;;;2.00;2.00;;;;;;;;5096542;27;45556;-50
2022/06/26 06:46:50;;;;;;;;;1.00;1.00;;;;;;;;5096327;27;46042;-53
2022/06/26 06:49:15;;;;;;;;;4.00;2.75;;;;;;;;5096210;27;45343;-49
2022/06/26 06:51:40;;;;;;;;;4.75;3.25;;;;;;;;5096332;27;45201;-51
2022/06/26 06:54:05;;;;;;;;;4.00;2.75;;;;;;;;5096375;27;45549;-54
2022/06/26 06:56:31;;;;;;;;;2.50;2.50;;;;;;;;5096198;27;46478;-51
2022/06/26 06:58:56;;;;;;;;;1.75;1.75;;;;;;;;5096252;27;45191;-52
2022/06/26 07:01:21;;;;;;;;;3.00;2.00;;;;;;;;5096104;27;45288;-43
2022/06/26 07:03:47;;;;;;;;;1.50;1.50;;;;;;;;5096521;27;45712;-43
2022/06/26 07:06:12;;;;;;;;;3.00;1.00;;;;;;;;5095876;27;45414;-49
2022/06/26 07:08:37;;;;;;;;;2.50;2.00;;;;;;;;5096016;27;45327;-50
2022/06/26 07:11:02;;;;;;;;;1.00;1.00;;;;;;;;5098292;27;45364;-54
2022/06/26 07:13:28;;;;;;;;;2.00;1.00;;;;;;;;5099640;27;45265;-50
2022/06/26 07:15:53;;;;;;;;;1.00;1.00;;;;;;;;5099831;27;46224;-51
2022/06/26 07:18:18;;;;;;;;;1.50;1.50;;;;;;;;5099459;27;45346;-52
2022/06/26 07:20:43;;;;;;;;;3.00;2.50;;;;;;;;5099738;27;45335;-48
2022/06/26 07:23:09;;;;;;;;;1.25;1.25;;;;;;;;5099918;27;45541;-48
2022/06/26 07:25:34;;;;;;;;;2.25;2.25;;;;;;;;5119994;27;46496;-50
2022/06/26 07:27:59;;;;;;;;;1.50;1.50;;;;;;;;5120161;27;45424;-48
2022/06/26 07:30:25;;;;;;;;;2.00;1.00;;;;;;;;5120010;27;45318;-49
2022/06/26 07:32:50;;;;;;;;;3.25;3.00;;;;;;;;5120395;27;45292;-51
2022/06/26 07:35:15;;;;;;;;;2.00;2.00;;;;;;;;5119612;27;46739;-49
2022/06/26 07:37:40;;;;;;;;;2.75;2.25;;;;;;;;5119879;27;45401;-49
2022/06/26 07:40:06;;;;;;;;;2.50;2.00;;;;;;;;5119845;27;45284;-53
2022/06/26 07:42:31;;;;;;;;;2.00;1.00;;;;;;;;5119887;27;45305;-52
2022/06/26 07:44:57;;;;;;;;;6.00;2.00;;;;;;;;5119494;27;46603;-49
2022/06/26 07:47:22;;;;;;;;;1.50;1.50;;;;;;;;5119357;27;45375;-48
2022/06/26 07:49:47;;;;;;;;;2.75;2.75;;;;;;;;5119558;27;45480;-44
2022/06/26 07:52:13;;;;;;;;;1.00;1.00;;;;;;;;5120164;27;45769;-45
2022/06/26 07:54:38;;;;;;;;;1.00;1.00;;;;;;;;5119186;27;45985;-52
2022/06/26 07:57:03;;;;;;;;;3.50;2.00;;;;;;;;5119734;27;45396;-50
2022/06/26 07:59:29;;;;;;;;;1.00;1.00;;;;;;;;5100685;27;45281;-50
2022/06/26 08:01:54;;;;;;;;;0.00;0.00;;;;;;;;5119667;27;45502;-51
2022/06/26 08:04:19;;;;;;;;;1.00;1.00;;;;;;;;5118976;27;45532;-54
2022/06/26 08:06:44;;;;;;;;;1.75;1.75;;;;;;;;5119452;27;45354;-51
2022/06/26 08:09:10;;;;;;;;;2.00;2.00;;;;;;;;5119473;27;45375;-53
2022/06/26 08:11:35;;;;;;;;;4.00;2.25;;;;;;;;5109241;27;45384;-52
2022/06/26 08:14:00;;;;;;;;;3.00;2.50;;;;;;;;5108610;27;45472;-46
2022/06/26 08:16:25;;;;;;;;;1.25;1.25;;;;;;;;5139388;27;45355;-48
2022/06/26 08:18:51;;;;;;;;;0.75;0.75;;;;;;;;5139776;27;45561;-50
2022/06/26 08:24:00;;;;;;;;;2.60;2.60;;;;;;;;5135075;27;45455;-51
2022/06/26 08:26:25;;;;;;;;;3.00;1.00;;;;;;;;5119176;27;45427;-54
2022/06/26 08:28:50;;;;;;;;;2.00;1.00;;;;;;;;5119017;27;45398;-50
2022/06/26 08:31:16;;;;;;;;;1.75;1.75;;;;;;;;5119447;27;45777;-50
2022/06/26 08:33:41;;;;;;;;;2.00;2.00;;;;;;;;5118685;27;45911;-53
2022/06/26 08:36:06;;;;;;;;;2.00;2.00;;;;;;;;5119057;27;45351;-52
2022/06/26 08:38:32;;;;;;;;;2.00;2.00;;;;;;;;5118992;27;45418;-48
2022/06/26 08:41:00;;;;;;;;;5.25;3.75;;;;;;;;5119157;27;45224;-46
2022/06/26 08:43:25;;;;;;;;;4.00;3.60;;;;;;;;5100268;27;46395;-50
2022/06/26 08:45:53;;;;;;;;;3.00;3.00;;;;;;;;5115747;27;45751;-48
2022/06/26 08:48:18;;;;;;;;;4.20;3.00;;;;;;;;5098067;27;45347;-53
2022/06/26 08:50:44;;;;;;;;;2.00;1.00;;;;;;;;5098227;27;45385;-49
2022/06/26 08:53:09;;;;;;;;;1.50;1.50;;;;;;;;5079742;27;45750;-47
2022/06/26 08:55:34;;;;;;;;;2.00;2.00;;;;;;;;5097937;27;45283;-47
2022/06/26 08:57:59;;;;;;;;;1.00;1.00;;;;;;;;5097985;27;45271;-45
2022/06/26 09:00:25;;;;;;;;;1.25;1.25;;;;;;;;5079980;27;45484;-51
2022/06/26 09:02:50;;;;;;;;;1.50;1.50;;;;;;;;5097389;27;45680;-48
2022/06/26 09:05:15;;;;;;;;;2.00;2.00;;;;;;;;5097674;27;45338;-48
2022/06/26 09:07:45;;;;;;;;;3.00;3.00;;;;;;;;5078427;27;45380;-53
2022/06/26 09:10:10;;;;;;;;;2.20;2.20;;;;;;;;5097641;27;45610;-50
2022/06/26 09:12:36;;;;;;;;;4.00;4.00;;;;;;;;5060466;27;45686;-48
2022/06/26 09:15:01;;;;;;;;;4.25;2.25;;;;;;;;5097091;27;45400;-44
2022/06/26 09:17:26;;;;;;;;;2.50;1.00;;;;;;;;5096111;27;45348;-47
2022/06/26 09:19:51;;;;;;;;;3.75;2.75;;;;;;;;5097737;27;45396;-49
2022/06/26 09:22:17;;;;;;;;;3.50;3.50;;;;;;;;5078728;27;45831;-50
2022/06/26 09:24:55;;;;;;;;;4.50;2.75;;;;;;;;5096771;27;45385;-53
2022/06/26 09:27:21;;;;;;;;;1.60;1.60;;;;;;;;5096893;27;45366;-53
2022/06/26 09:29:53;;;;;;;;;1.75;1.75;;;;;;;;5096098;27;45467;-49
2022/06/26 09:32:21;;;;;;;;;3.40;3.20;;;;;;;;5096178;27;45473;-51
2022/06/26 09:34:47;;;;;;;;;1.60;1.60;;;;;;;;5096734;27;45337;-51
2022/06/26 09:37:12;;;;;;;;;2.80;1.40;;;;;;;;5096863;27;45313;-47
2022/06/26 09:39:38;;;;;;;;;0.50;0.50;;;;;;;;5096931;27;45255;-48
2022/06/26 09:42:18;;;;;;;;;1.00;1.00;;;;;;;;5076599;27;45547;-50
2022/06/26 09:44:44;;;;;;;;;1.00;1.00;;;;;;;;5096677;27;45330;-47
2022/06/26 09:47:20;;;;;;;;;2.60;1.80;;;;;;;;5096691;27;45350;-49
2022/06/26 09:49:45;;;;;;;;;0.80;0.80;;;;;;;;5097010;27;45472;-47
2022/06/26 09:52:11;;;;;;;;;2.00;2.00;;;;;;;;5096136;27;45746;-47
2022/06/26 09:54:36;;;;;;;;;2.25;1.00;;;;;;;;5076695;27;45449;-50
2022/06/26 09:57:01;;;;;;;;;3.25;2.75;;;;;;;;5078141;27;45396;-53
2022/06/26 09:59:27;;;;;;;;;2.50;1.50;;;;;;;;5078385;27;45362;-52
2022/06/26 10:07:20;;;;;;;;;1.80;1.80;;;;;;;;5076099;27;45829;-50
2022/06/26 10:09:45;;;;;;;;;7.00;5.00;;;;;;;;5096577;27;45433;-51
2022/06/26 10:12:12;;;;;;;;;3.75;3.75;;;;;;;;5077999;27;46192;-52
2022/06/26 10:14:39;;;;;;;;;7.40;5.00;;;;;;;;5096050;27;45379;-49
2022/06/26 10:17:21;;;;;;;;;0.80;0.80;;;;;;;;5057610;27;45351;-45
2022/06/26 10:19:56;;;;;;;;;3.60;3.00;;;;;;;;5070381;27;45396;-48
2022/06/26 10:22:21;;;;;;;;;3.40;2.60;;;;;;;;5077450;27;47391;-55
2022/06/26 10:24:50;;;;;;;;;3.00;2.25;;;;;;;;5096149;27;45404;-53
2022/06/26 10:27:15;;;;;;;;;2.00;2.00;;;;;;;;5096680;27;45329;-53
2022/06/26 10:29:41;;;;;;;;;2.00;2.00;;;;;;;;5095238;27;45426;-47
2022/06/26 10:32:06;;;;;;;;;2.00;2.00;;;;;;;;5096143;27;45914;-45
2022/06/26 10:34:32;;;;;;;;;2.25;2.25;;;;;;;;5078210;27;45411;-50
2022/06/26 10:36:57;;;;;;;;;3.50;3.50;;;;;;;;5096350;27;45381;-48
2022/06/26 10:39:23;;;;;;;;;2.75;1.75;;;;;;;;5096435;27;45440;-49
2022/06/26 10:45:14;;;;;;;;;3.00;1.80;;;;;;;;5032531;28;45468;-49
2022/06/26 10:47:40;;;;;;;;;2.60;2.60;;;;;;;;5036254;28;45691;-53
2022/06/26 10:50:05;;;;;;;;;4.00;2.20;;;;;;;;5057357;27;45430;-46
2022/06/26 10:52:31;;;;;;;;;1.50;1.50;;;;;;;;5099658;27;46424;-51
2022/06/26 10:55:00;;;;;;;;;3.75;2.75;;;;;;;;5097716;27;45372;-41
2022/06/26 10:57:35;;;;;;;;;2.60;2.40;;;;;;;;5099838;27;45329;-48
2022/06/26 11:00:01;;;;;;;;;2.40;2.00;;;;;;;;5099727;27;45271;-50
2022/06/26 11:02:32;;;;;;;;;3.00;3.00;;;;;;;;5099571;27;46622;-45
2022/06/26 11:04:58;;;;;;;;;3.20;1.60;;;;;;;;5099239;27;45364;-50
2022/06/26 11:07:24;;;;;;;;;3.00;1.80;;;;;;;;5093504;27;45301;-54
2022/06/26 11:09:49;;;;;;;;;3.00;1.50;;;;;;;;5099475;27;45379;-52
2022/06/26 11:12:14;;;;;;;;;1.75;1.75;;;;;;;;5064253;27;47241;-49
2022/06/26 11:14:40;;;;;;;;;1.00;1.00;;;;;;;;5099038;27;45390;-47
2022/06/26 11:17:07;;;;;;;;;2.25;2.00;;;;;;;;5088649;27;46163;-47
2022/06/26 11:20:46;;;;;;;;;2.40;2.40;;;;;;;;5099728;27;45274;-47
2022/06/26 11:22:17;;;;;;;;;2.40;2.20;;;;;;;;5095890;27;46097;-54
2022/06/26 11:24:53;;;;;;;;;3.00;1.25;;;;;;;;5080144;27;45346;-52
2022/06/26 11:27:21;;;;;;;;;2.80;1.80;;;;;;;;5098896;27;45425;-48
2022/06/26 11:29:47;;;;;;;;;4.00;1.80;;;;;;;;5089938;27;45324;-49
2022/06/26 11:32:12;;;;;;;;;1.50;1.50;;;;;;;;5071019;27;45913;-51
2022/06/26 11:34:46;;;;;;;;;1.00;1.00;;;;;;;;5081156;27;45898;-53
2022/06/26 11:37:11;;;;;;;;;2.60;2.60;;;;;;;;5092348;27;45453;-49
2022/06/26 11:39:37;;;;;;;;;4.00;2.75;;;;;;;;5094984;27;45773;-46
2022/06/26 11:42:12;;;;;;;;;2.75;2.50;;;;;;;;5093801;27;46104;-52
2022/06/26 11:44:45;;;;;;;;;3.00;3.00;;;;;;;;5094436;27;45741;-48
2022/06/26 11:47:10;;;;;;;;;3.00;3.00;;;;;;;;5094632;27;45417;-50
2022/06/26 11:49:37;;;;;;;;;2.00;2.00;;;;;;;;5094082;27;45859;-52
2022/06/26 11:52:02;;;;;;;;;2.80;2.00;;;;;;;;5093799;27;46207;-54
2022/06/26 11:54:27;;;;;;;;;3.25;2.50;;;;;;;;5092999;27;45342;-51
2022/06/26 11:56:52;;;;;;;;;2.75;2.75;;;;;;;;5082462;27;45381;-48
2022/06/26 11:59:18;;;;;;;;;2.75;1.00;;;;;;;;5073942;27;45370;-54
2022/06/26 12:01:43;;;;;;;;;2.00;2.00;;;;;;;;5091945;27;45409;-46
2022/06/26 12:04:09;;;;;;;;;1.00;1.00;;;;;;;;5093524;27;45775;-46
2022/06/26 12:06:35;;;;;;;;;4.50;3.00;;;;;;;;5093081;27;45877;-51
2022/06/26 12:09:01;;;;;;;;;2.80;2.80;;;;;;;;5094362;27;45802;-50
2022/06/26 12:11:26;;;;;;;;;4.00;4.00;;;;;;;;5094176;27;45709;-52
2022/06/26 12:13:51;;;;;;;;;2.50;2.00;;;;;;;;5093179;27;45884;-51
2022/06/26 12:16:20;;;;;;;;;2.00;2.00;;;;;;;;5069708;27;45449;-51
2022/06/26 12:18:47;;;;;;;;;2.00;2.00;;;;;;;;5090979;27;45380;-50
2022/06/26 12:21:15;;;;;;;;;1.60;1.60;;;;;;;;5093729;27;45902;-50
2022/06/26 12:23:41;;;;;;;;;2.00;2.00;;;;;;;;5093559;27;45763;-49
2022/06/26 12:26:07;;;;;;;;;1.50;1.50;;;;;;;;5095421;27;46172;-50
2022/06/26 12:28:32;;;;;;;;;3.40;2.60;;;;;;;;5094239;27;45802;-51
2022/06/26 12:31:00;;;;;;;;;4.75;3.50;;;;;;;;5084297;27;45806;-51
2022/06/26 12:33:25;;;;;;;;;2.40;1.60;;;;;;;;5093229;27;45406;-46
2022/06/26 12:35:50;;;;;;;;;4.25;2.25;;;;;;;;5094036;27;46116;-47
2022/06/26 12:38:23;;;;;;;;;2.50;2.50;;;;;;;;5091428;27;45615;-50
2022/06/26 12:40:48;;;;;;;;;2.20;2.20;;;;;;;;5093746;27;46989;-53
2022/06/26 12:43:14;;;;;;;;;2.50;1.50;;;;;;;;5093405;27;45857;-48
2022/06/26 12:45:39;;;;;;;;;1.00;1.00;;;;;;;;5093616;27;45480;-52
2022/06/26 12:48:04;;;;;;;;;2.00;2.00;;;;;;;;5093790;27;45436;-46
2022/06/26 12:50:30;;;;;;;;;2.25;2.25;;;;;;;;5092106;27;47602;-47
2022/06/26 12:52:55;;;;;;;;;1.50;1.50;;;;;;;;5093631;27;45765;-50
2022/06/26 12:55:20;;;;;;;;;3.50;3.50;;;;;;;;5093362;27;45422;-52
2022/06/26 12:57:46;;;;;;;;;5.00;3.00;;;;;;;;5093603;27;45447;-52
2022/06/26 13:00:11;;;;;;;;;3.25;3.25;;;;;;;;5093339;27;46142;-57
2022/06/26 13:02:36;;;;;;;;;2.00;1.00;;;;;;;;5090764;27;45371;-49
2022/06/26 13:05:03;;;;;;;;;3.00;3.00;;;;;;;;5093303;27;45463;-53
2022/06/26 13:07:28;;;;;;;;;3.60;3.60;;;;;;;;5092511;27;45736;-48
2022/06/26 13:09:53;;;;;;;;;2.75;2.75;;;;;;;;5093217;27;45584;-46
2022/06/26 13:12:18;;;;;;;;;5.25;3.50;;;;;;;;5092913;27;45364;-50
2022/06/26 13:14:44;;;;;;;;;4.00;4.00;;;;;;;;5091955;27;45356;-50
2022/06/26 13:17:10;;;;;;;;;4.60;3.20;;;;;;;;5093565;27;45438;-53
2022/06/26 13:19:35;;;;;;;;;2.25;2.00;;;;;;;;5091349;27;47075;-49
2022/06/26 13:22:00;;;;;;;;;6.25;6.25;;;;;;;;5093039;27;45733;-53
2022/06/26 13:24:26;;;;;;;;;7.00;5.50;;;;;;;;5092460;27;45632;-52
2022/06/26 13:26:51;;;;;;;;;5.25;4.00;;;;;;;;5081282;27;45871;-51
2022/06/26 13:29:16;;;;;;;;;4.25;4.25;;;;;;;;5078793;27;46383;-51
2022/06/26 13:31:42;;;;;;;;;2.50;2.50;;;;;;;;5072926;27;45351;-51
2022/06/26 13:34:07;;;;;;;;;4.50;3.25;;;;;;;;5092581;27;45535;-46
2022/06/26 13:36:32;;;;;;;;;3.50;2.50;;;;;;;;5093008;27;45975;-54
2022/06/26 13:38:58;;;;;;;;;1.50;1.50;;;;;;;;5084681;27;46390;-55
2022/06/26 13:41:23;;;;;;;;;4.00;3.00;;;;;;;;5072280;28;45708;-54
2022/06/26 13:43:48;;;;;;;;;2.50;2.50;;;;;;;;5071648;27;46057;-51
2022/06/26 13:46:13;;;;;;;;;4.00;4.00;;;;;;;;5072334;27;45696;-51
2022/06/26 13:48:39;;;;;;;;;3.25;3.00;;;;;;;;5077168;27;46953;-51
2022/06/26 13:51:04;;;;;;;;;5.00;3.25;;;;;;;;5074618;27;45347;-50
2022/06/26 13:53:37;;;;;;;;;3.25;3.00;;;;;;;;5079242;27;45423;-50
2022/06/26 13:56:02;;;;;;;;;2.60;2.00;;;;;;;;5095808;27;45406;-49
2022/06/26 13:58:28;;;;;;;;;3.00;3.00;;;;;;;;5096397;27;46268;-53
2022/06/26 14:00:54;;;;;;;;;4.00;4.00;;;;;;;;5096597;27;45439;-49
2022/06/26 14:03:19;;;;;;;;;3.00;3.00;;;;;;;;5096659;27;45325;-49
2022/06/26 14:05:44;;;;;;;;;4.00;3.00;;;;;;;;5096282;27;45308;-48
2022/06/26 14:08:09;;;;;;;;;7.00;4.00;;;;;;;;5093967;27;48440;-48